Bookmark and Share
Track history (hours):
 

MSC Bettina

Last reported at 2014-Apr-14 07:33 UTC. Time now 2014-Apr-17 09:43 UTC.
Position N 23°48' E 118°07'.

Length 366 m; draft 14.7 m.

Type: Ship (hazmat cat A). MMSI: 352361000.

NotesDate/timePositionNaut miles runAvg speedWind from/ knotsBaromVisibWave heightAir tempDewpointWater temp
2014-Apr-14 07:33N 23°48' E 118°07'46818.7
2014-Apr-13 06:30N 30°20' E 122°54'2121.0
2014-Apr-13 05:30N 30°31' E 122°33'1616.7
2014-Apr-13 04:33N 30°33' E 122°15'9 9.3
2014-Apr-13 03:33N 30°36' E 122°05'0 0.0
2014-Apr-13 01:11N 30°36' E 122°05'0 0.0
2014-Apr-12 18:29N 30°36' E 122°05'0 0.0
2014-Apr-12 10:17N 30°36' E 122°05'0 0.0
2014-Apr-12 07:22N 30°36' E 122°05'0 0.0
2014-Apr-12 03:33N 30°36' E 122°05'6 6.1
2014-Apr-12 02:32N 30°34' E 122°12'9 9.5
2014-Apr-12 01:33N 30°33' E 122°23'1312.6
2014-Apr-12 00:32N 30°31' E 122°37'1414.4
2014-Apr-11 23:32N 30°20' E 122°47'0 0.1
2014-Apr-11 20:14N 30°19' E 122°47'0 0.0
2014-Apr-11 16:26N 30°19' E 122°47'0 0.0
2014-Apr-11 08:32N 30°19' E 122°47'0 0.1
2014-Apr-11 07:32N 30°19' E 122°47'0 0.1
2014-Apr-11 06:32N 30°19' E 122°47'0 0.0
2014-Apr-11 05:20N 30°19' E 122°47'0 0.0
2014-Apr-11 04:32N 30°19' E 122°47'0 0.0
2014-Apr-11 03:26N 30°19' E 122°47'0 0.0
2014-Apr-11 01:32N 30°19' E 122°47'0 0.1
2014-Apr-11 00:13N 30°19' E 122°47'5 7.1
2014-Apr-10 23:33N 30°18' E 122°53'1111.1
2014-Apr-10 22:33N 30°10' E 123°01'1211.9
2014-Apr-10 21:33N 29°58' E 122°59'1211.8
2014-Apr-10 20:33N 29°47' E 122°54'1111.3
2014-Apr-10 19:33N 29°40' E 122°43'1111.0
2014-Apr-10 18:33N 29°40' E 122°31'1212.2
2014-Apr-10 17:33N 29°46' E 122°18'1111.2
2014-Apr-10 16:33N 29°55' E 122°10'7 6.1
2014-Apr-10 15:28N 29°53' E 122°02'0 0.0
2014-Apr-10 14:28N 29°53' E 122°02'0 0.0
2014-Apr-10 13:28N 29°53' E 122°02'0 0.0
2014-Apr-10 12:28N 29°53' E 122°02'0 0.0
2014-Apr-10 11:28N 29°53' E 122°02'0 0.0
2014-Apr-10 10:28N 29°53' E 122°02'0 0.0
2014-Apr-10 09:28N 29°53' E 122°02'0 0.0
2014-Apr-10 08:22N 29°53' E 122°02'0 0.0
2014-Apr-10 07:28N 29°53' E 122°02'0 0.0
2014-Apr-10 06:22N 29°53' E 122°02'0 0.0
2014-Apr-10 05:28N 29°53' E 122°02'0 0.0
2014-Apr-10 04:28N 29°53' E 122°02'0 0.0
2014-Apr-10 03:28N 29°53' E 122°02'0 0.0
2014-Apr-10 02:28N 29°53' E 122°02'0 0.0
2014-Apr-10 01:22N 29°53' E 122°02'0 0.0
2014-Apr-10 00:22N 29°53' E 122°02'0 0.0
2014-Apr-09 23:28N 29°53' E 122°02'0 0.0
2014-Apr-09 22:28N 29°53' E 122°02'0 0.0
2014-Apr-09 21:28N 29°53' E 122°02'0 0.0
2014-Apr-09 20:28N 29°53' E 122°02'0 0.0
2014-Apr-09 19:28N 29°53' E 122°02'0 0.0
2014-Apr-09 18:28N 29°53' E 122°02'0 0.0
2014-Apr-09 17:28N 29°53' E 122°02'0 0.0
2014-Apr-09 16:28N 29°53' E 122°02'0 0.0
2014-Apr-09 15:28N 29°53' E 122°02'2 1.8
2014-Apr-09 14:33N 29°54' E 122°04'9 8.8
2014-Apr-09 13:33N 29°50' E 122°13'7 6.8
2014-Apr-09 12:33N 29°46' E 122°19'3 2.7
2014-Apr-09 11:28N 29°45' E 122°22'0 0.1
2014-Apr-09 10:28N 29°45' E 122°22'0 0.1
2014-Apr-09 09:28N 29°45' E 122°22'0 0.0
2014-Apr-09 08:28N 29°45' E 122°22'0 0.0
2014-Apr-09 07:28N 29°45' E 122°22'0 0.0
2014-Apr-09 06:28N 29°45' E 122°22'0 0.1
2014-Apr-09 05:28N 29°45' E 122°22'0 0.1
2014-Apr-09 04:28N 29°45' E 122°22'0 0.1
2014-Apr-09 03:28N 29°45' E 122°22'0 0.0
2014-Apr-09 02:28N 29°45' E 122°22'0 0.1
2014-Apr-09 01:33N 29°45' E 122°22'9 8.9
2014-Apr-09 00:34N 29°38' E 122°28'2 1.3
2014-Apr-08 23:05N 29°37' E 122°30'0 0.1
2014-Apr-08 22:29N 29°37' E 122°30'0 0.0
2014-Apr-08 21:11N 29°37' E 122°30'0 0.0
2014-Apr-08 20:29N 29°37' E 122°30'0 0.0
2014-Apr-08 19:29N 29°37' E 122°30'0 0.1
2014-Apr-08 18:23N 29°37' E 122°30'0 0.1
2014-Apr-08 17:29N 29°37' E 122°30'0 0.1
2014-Apr-08 16:29N 29°37' E 122°30'0 0.0
2014-Apr-08 15:05N 29°37' E 122°30'0 0.2
2014-Apr-08 14:33N 29°37' E 122°30'3 3.4
2014-Apr-08 13:33N 29°40' E 122°32'1312.6
2014-Apr-08 12:30N 29°45' E 122°46'35016.7
2014-Apr-07 15:31N 35°30' E 121°35'2020.9
2014-Apr-07 14:32N 35°45' E 121°17'2020.3
2014-Apr-07 13:33N 35°55' E 120°56'1919.1
2014-Apr-07 12:34N 35°58' E 120°33'1313.1
2014-Apr-07 11:33N 36°02' E 120°17'4 3.9
2014-Apr-07 10:26N 36°00' E 120°12'0 0.0
2014-Apr-07 09:26N 36°00' E 120°12'0 0.0
2014-Apr-07 07:31N 36°00' E 120°12'0 0.0
2014-Apr-07 06:31N 36°00' E 120°12'0 0.0
2014-Apr-07 05:31N 36°00' E 120°12'0 0.0
2014-Apr-07 04:19N 36°00' E 120°12'0 0.0
2014-Apr-07 03:25N 36°00' E 120°12'0 0.0
2014-Apr-07 02:25N 36°00' E 120°12'0 0.0
2014-Apr-07 01:31N 36°00' E 120°12'0 0.0
2014-Apr-07 00:31N 36°00' E 120°12'0 0.0
2014-Apr-06 23:31N 36°00' E 120°12'0 0.0
2014-Apr-06 22:31N 36°00' E 120°12'0 0.0
2014-Apr-06 21:31N 36°00' E 120°12'0 0.0
2014-Apr-06 20:31N 36°00' E 120°12'0 0.0
2014-Apr-06 19:31N 36°00' E 120°12'0 0.0
2014-Apr-06 18:31N 36°00' E 120°12'0 0.0
2014-Apr-06 17:31N 36°00' E 120°12'0 0.0
2014-Apr-06 16:31N 36°00' E 120°12'0 0.0
2014-Apr-06 15:30N 36°00' E 120°12'0 0.1
2014-Apr-06 14:33N 36°00' E 120°12'7 6.8
2014-Apr-06 13:33N 36°01' E 120°21'9 8.8
2014-Apr-06 12:33N 35°60' E 120°31'1312.5
2014-Apr-06 11:33N 35°57' E 120°46'  

Dump ship's entire track history

sailing weather and tide predictions

MSC Bettina — HPFG — position and weather